createdAt,value
2019-02-21T00:00:29.009Z,1.33
2019-02-21T00:02:58.776Z,1.90
2019-02-21T00:05:28.688Z,1.00
2019-02-21T00:07:58.335Z,1.83
2019-02-21T00:10:27.936Z,1.53
2019-02-21T00:12:57.717Z,1.07
2019-02-21T00:15:27.467Z,1.47
2019-02-21T00:17:56.965Z,1.57
2019-02-21T00:20:27.053Z,2.17
2019-02-21T00:22:56.512Z,1.10
2019-02-21T00:25:26.000Z,1.10
2019-02-21T00:27:56.915Z,0.93
2019-02-21T00:30:34.806Z,0.90
2019-02-21T00:32:57.865Z,1.03
2019-02-21T00:35:27.429Z,1.63
2019-02-21T00:37:57.005Z,0.93
2019-02-21T00:40:26.487Z,1.80
2019-02-21T00:42:56.374Z,2.50
2019-02-21T00:45:25.871Z,1.20
2019-02-21T00:47:55.338Z,1.57
2019-02-21T00:50:24.778Z,1.33
2019-02-21T00:52:54.272Z,1.10
2019-02-21T00:55:23.947Z,0.70
2019-02-21T00:57:53.871Z,1.47
2019-02-21T01:00:23.671Z,0.70
2019-02-21T01:02:53.155Z,1.20
2019-02-21T01:05:27.863Z,2.30
2019-02-21T01:07:57.282Z,0.90
2019-02-21T01:10:26.875Z,0.90
2019-02-21T01:12:56.527Z,0.80
2019-02-21T01:15:25.942Z,0.90
2019-02-21T01:17:55.622Z,1.30
2019-02-21T01:20:25.199Z,2.00
2019-02-21T01:22:54.699Z,1.10
2019-02-21T01:25:24.463Z,2.57
2019-02-21T01:27:53.903Z,1.20
2019-02-21T01:30:23.630Z,0.80
2019-02-21T01:32:53.060Z,1.40
2019-02-21T01:35:22.870Z,1.23
2019-02-21T01:37:52.438Z,1.00
2019-02-21T01:40:21.979Z,1.40
2019-02-21T01:42:51.678Z,1.00
2019-02-21T01:45:21.724Z,0.80
2019-02-21T01:47:51.355Z,2.20
2019-02-21T01:50:21.012Z,2.60
2019-02-21T01:52:50.439Z,0.90
2019-02-21T01:55:19.928Z,1.40
2019-02-21T01:57:49.724Z,1.80
2019-02-21T02:00:19.571Z,0.80
2019-02-21T02:02:49.155Z,0.90
2019-02-21T02:05:18.603Z,0.90
2019-02-21T02:07:48.162Z,0.80
2019-02-21T02:10:18.059Z,1.00
2019-02-21T02:12:47.942Z,1.23
2019-02-21T02:15:17.360Z,1.07
2019-02-21T02:17:47.071Z,0.80
2019-02-21T02:20:16.698Z,1.10
2019-02-21T02:22:46.407Z,0.90
2019-02-21T02:25:16.086Z,0.80
2019-02-21T02:27:45.618Z,2.27
2019-02-21T02:30:15.182Z,1.43
2019-02-21T02:32:44.953Z,3.13
2019-02-21T02:35:14.762Z,2.63
2019-02-21T02:37:44.330Z,1.60
2019-02-21T02:40:13.819Z,2.20
2019-02-21T02:42:43.643Z,0.87
2019-02-21T02:45:13.459Z,1.10
2019-02-21T02:47:42.986Z,1.97
2019-02-21T02:50:12.858Z,1.53
2019-02-21T02:52:42.607Z,2.00
2019-02-21T02:55:12.165Z,0.80
2019-02-21T02:57:41.844Z,1.33
2019-02-21T03:00:14.267Z,1.47
2019-02-21T03:02:43.825Z,1.87
2019-02-21T03:05:13.765Z,2.10
2019-02-21T03:07:43.182Z,1.00
2019-02-21T03:10:14.221Z,1.30
2019-02-21T03:12:44.181Z,1.80
2019-02-21T03:15:13.747Z,1.57
2019-02-21T03:17:43.161Z,0.90
2019-02-21T03:20:12.936Z,1.90
2019-02-21T03:22:42.795Z,1.27
2019-02-21T03:25:12.231Z,1.93
2019-02-21T03:27:42.082Z,0.90
2019-02-21T03:30:12.846Z,1.70
2019-02-21T03:32:42.635Z,1.97
2019-02-21T03:35:12.416Z,1.97
2019-02-21T03:37:42.093Z,1.10
2019-02-21T03:40:11.906Z,2.30
2019-02-21T03:42:41.421Z,1.40
2019-02-21T03:45:13.254Z,1.87
2019-02-21T03:47:42.755Z,1.17
2019-02-21T03:50:12.895Z,1.07
2019-02-21T03:52:42.386Z,1.53
2019-02-21T03:55:12.019Z,1.03
2019-02-21T03:57:41.680Z,0.90
2019-02-21T04:00:12.192Z,1.27
2019-02-21T04:02:41.683Z,1.43
2019-02-21T04:05:11.219Z,3.17
2019-02-21T04:07:41.060Z,1.20
2019-02-21T04:10:10.755Z,1.10
2019-02-21T04:12:40.335Z,1.60
2019-02-21T04:15:12.881Z,0.97
2019-02-21T04:17:42.334Z,1.50
2019-02-21T04:20:12.263Z,1.73
2019-02-21T04:22:41.769Z,1.23
2019-02-21T04:25:11.222Z,1.23
2019-02-21T04:27:40.871Z,0.90
2019-02-21T04:30:10.697Z,1.43
2019-02-21T04:32:40.186Z,1.67
2019-02-21T04:35:09.748Z,0.70
2019-02-21T04:37:39.230Z,1.47
2019-02-21T04:40:08.960Z,1.00
2019-02-21T04:42:38.763Z,1.00
2019-02-21T04:45:08.385Z,0.80
2019-02-21T04:47:38.085Z,1.83
2019-02-21T04:50:08.332Z,0.90
2019-02-21T04:52:37.913Z,0.90
2019-02-21T04:55:07.647Z,0.90
2019-02-21T04:57:37.091Z,1.00
2019-02-21T05:00:09.655Z,1.67
2019-02-21T05:02:40.652Z,0.90
2019-02-21T05:05:10.601Z,1.50
2019-02-21T05:07:40.024Z,1.87
2019-02-21T05:10:09.655Z,1.53
2019-02-21T05:12:39.225Z,2.03
2019-02-21T05:15:09.672Z,0.70
2019-02-21T05:17:39.090Z,1.50
2019-02-21T05:20:08.677Z,1.83
2019-02-21T05:22:38.354Z,1.40
2019-02-21T05:25:07.834Z,1.67
2019-02-21T05:27:38.904Z,2.03
2019-02-21T05:30:11.394Z,1.17
2019-02-21T05:32:45.745Z,1.27
2019-02-21T05:35:25.990Z,1.50
2019-02-21T05:38:13.103Z,2.50
2019-02-21T05:40:44.160Z,2.13
2019-02-21T05:43:17.837Z,3.10
2019-02-21T05:45:52.051Z,1.90
2019-02-21T05:48:32.066Z,4.00
2019-02-21T05:51:18.152Z,1.63
2019-02-21T05:53:49.299Z,3.80
2019-02-21T05:56:32.098Z,2.90
2019-02-21T05:59:03.631Z,2.67
2019-02-21T06:05:00.259Z,0.90
2019-02-21T06:07:40.509Z,1.90
2019-02-21T06:10:11.669Z,2.13
2019-02-21T06:12:42.786Z,1.30
2019-02-21T06:15:18.276Z,0.93
2019-02-21T06:18:01.244Z,1.10
2019-02-21T06:20:48.060Z,1.73
2019-02-21T06:23:31.085Z,1.20
2019-02-21T06:26:02.458Z,1.60
2019-02-21T06:28:33.695Z,0.90
2019-02-21T06:31:04.759Z,2.30
2019-02-21T06:33:34.773Z,1.50
2019-02-21T06:36:04.359Z,0.90
2019-02-21T06:38:33.931Z,1.00
2019-02-21T06:41:04.009Z,0.80
2019-02-21T06:43:33.530Z,0.90
2019-02-21T06:46:03.119Z,1.10
2019-02-21T06:48:34.913Z,1.30
2019-02-21T06:51:04.180Z,1.83
2019-02-21T06:53:33.729Z,1.20
2019-02-21T06:56:03.663Z,1.10
2019-02-21T06:58:33.152Z,1.20
2019-02-21T07:01:03.010Z,1.93
2019-02-21T07:03:32.695Z,2.10
2019-02-21T07:06:02.186Z,1.67
2019-02-21T07:08:31.603Z,1.20
2019-02-21T07:11:06.275Z,3.43
2019-02-21T07:13:32.182Z,1.27
2019-02-21T07:16:01.615Z,1.00
2019-02-21T07:18:31.406Z,4.67
2019-02-21T07:21:01.130Z,3.07
2019-02-21T07:23:42.608Z,3.73
2019-02-21T07:26:02.792Z,2.43
2019-02-21T07:28:32.222Z,2.17
2019-02-21T07:31:02.048Z,0.90
2019-02-21T07:33:31.763Z,2.30
2019-02-21T07:36:01.658Z,1.40
2019-02-21T07:38:31.781Z,3.57
2019-02-21T07:41:01.600Z,1.13
2019-02-21T07:43:31.624Z,1.77
2019-02-21T07:46:01.050Z,1.57
2019-02-21T07:48:30.582Z,1.87
2019-02-21T07:51:00.000Z,2.03
2019-02-21T07:53:29.557Z,2.90
2019-02-21T07:55:59.077Z,3.43
2019-02-21T07:58:28.706Z,2.03
2019-02-21T08:00:58.266Z,3.60
2019-02-21T08:03:32.200Z,2.03
2019-02-21T08:05:59.695Z,1.57
2019-02-21T08:08:32.336Z,4.60
2019-02-21T08:11:01.555Z,3.30
2019-02-21T08:13:33.129Z,1.70
2019-02-21T08:16:02.979Z,2.00
2019-02-21T08:18:32.759Z,2.13
2019-02-21T08:21:02.430Z,1.77
2019-02-21T08:23:32.585Z,1.10
2019-02-21T08:26:02.415Z,3.27
2019-02-21T08:28:32.007Z,2.17
2019-02-21T08:31:01.551Z,3.20
2019-02-21T08:33:32.903Z,3.30
2019-02-21T08:36:02.365Z,2.90
2019-02-21T08:38:31.847Z,0.80
2019-02-21T08:41:01.936Z,1.43
2019-02-21T08:43:31.487Z,2.30
2019-02-21T08:46:01.108Z,4.20
2019-02-21T08:48:31.069Z,1.30
2019-02-21T08:51:00.704Z,1.90
2019-02-21T08:53:30.239Z,2.10
2019-02-21T08:56:00.299Z,3.43
2019-02-21T08:58:30.008Z,2.50
2019-02-21T09:00:59.647Z,1.80
2019-02-21T09:03:29.129Z,2.60
2019-02-21T09:05:58.691Z,3.03
2019-02-21T09:08:33.730Z,1.10
2019-02-21T09:10:59.695Z,0.90
2019-02-21T09:13:29.501Z,1.83
2019-02-21T09:15:59.037Z,2.40
2019-02-21T09:18:28.867Z,2.00
2019-02-21T09:20:58.456Z,2.60
2019-02-21T09:23:31.070Z,1.13
2019-02-21T09:26:00.911Z,4.83
2019-02-21T09:28:35.844Z,2.07
2019-02-21T09:31:05.691Z,2.03
2019-02-21T09:33:37.108Z,2.00
2019-02-21T09:36:06.607Z,7.53
2019-02-21T09:38:36.483Z,5.27
2019-02-21T09:41:06.142Z,0.60
2019-02-21T09:43:35.550Z,7.27
2019-02-21T09:46:05.302Z,3.17
2019-02-21T09:48:34.999Z,2.30
2019-02-21T09:51:04.558Z,1.80
2019-02-21T09:53:34.492Z,1.30
2019-02-21T09:56:04.135Z,0.90
2019-02-21T09:58:33.633Z,1.07
2019-02-21T10:01:03.606Z,2.10
2019-02-21T10:03:33.263Z,2.00
2019-02-21T10:06:03.096Z,2.27
2019-02-21T10:08:32.704Z,5.27
2019-02-21T10:11:02.200Z,2.40
2019-02-21T10:13:31.880Z,1.10
2019-02-21T10:16:01.674Z,5.23
2019-02-21T10:18:31.179Z,4.07
2019-02-21T10:21:01.607Z,3.73
2019-02-21T10:23:31.579Z,4.30
2019-02-21T10:26:01.074Z,2.00
2019-02-21T10:28:32.444Z,3.70
2019-02-21T10:31:01.915Z,3.23
2019-02-21T10:33:50.840Z,3.43
2019-02-21T10:36:20.368Z,3.63
2019-02-21T10:38:49.955Z,3.73
2019-02-21T10:41:19.534Z,1.57
2019-02-21T10:43:49.347Z,1.10
2019-02-21T10:46:19.024Z,0.70
2019-02-21T10:48:48.481Z,2.70
2019-02-21T10:51:25.460Z,3.40
2019-02-21T10:54:00.891Z,3.10
2019-02-21T10:56:33.358Z,2.53
2019-02-21T10:59:06.124Z,5.10
2019-02-21T11:01:40.691Z,6.03
2019-02-21T11:04:10.158Z,6.20
2019-02-21T11:06:39.714Z,5.47
2019-02-21T11:09:12.507Z,3.83
2019-02-21T11:11:42.010Z,6.97
2019-02-21T11:14:11.837Z,7.20
2019-02-21T11:16:41.615Z,6.67
2019-02-21T11:19:11.652Z,10.60
2019-02-21T11:21:44.312Z,10.10
2019-02-21T11:24:14.251Z,7.30
2019-02-21T11:26:43.820Z,9.70
2019-02-21T11:29:14.790Z,7.83
2019-02-21T11:31:44.459Z,6.80
2019-02-21T11:34:13.988Z,7.43
2019-02-21T11:36:43.419Z,9.40
2019-02-21T11:39:12.980Z,6.20
2019-02-21T11:41:59.503Z,7.87
2019-02-21T11:44:30.011Z,7.37
2019-02-21T11:46:59.539Z,6.77
2019-02-21T11:49:29.063Z,7.17
2019-02-21T11:52:09.627Z,2.40
2019-02-21T11:54:29.967Z,8.80
2019-02-21T11:56:59.463Z,9.50
2019-02-21T11:59:29.239Z,6.40
2019-02-21T12:01:59.052Z,7.07
2019-02-21T12:04:29.528Z,7.33
2019-02-21T12:07:02.336Z,4.77
2019-02-21T12:09:31.765Z,5.60
2019-02-21T12:12:03.435Z,4.30
2019-02-21T12:14:33.294Z,7.43
2019-02-21T12:17:02.995Z,6.57
2019-02-21T12:19:32.415Z,6.60
2019-02-21T12:22:10.033Z,4.07
2019-02-21T12:24:39.656Z,6.20
2019-02-21T12:27:09.297Z,5.50
2019-02-21T12:29:38.922Z,5.90
2019-02-21T12:32:08.384Z,7.27
2019-02-21T12:34:37.930Z,8.13
2019-02-21T12:37:07.747Z,4.00
2019-02-21T12:39:37.286Z,8.63
2019-02-21T12:42:07.023Z,4.40
2019-02-21T12:44:36.943Z,11.20
2019-02-21T12:47:06.646Z,5.80
2019-02-21T12:49:36.359Z,7.97
2019-02-21T12:52:05.966Z,7.07
2019-02-21T12:54:35.388Z,6.00
2019-02-21T12:57:04.895Z,3.87
2019-02-21T12:59:34.439Z,4.73
2019-02-21T13:02:03.981Z,4.07
2019-02-21T13:04:33.598Z,7.70
2019-02-21T13:07:03.638Z,6.60
2019-02-21T13:09:33.074Z,2.83
2019-02-21T13:12:02.505Z,6.57
2019-02-21T13:14:38.143Z,5.60
2019-02-21T13:17:07.635Z,4.40
2019-02-21T13:19:37.310Z,6.67
2019-02-21T13:22:07.167Z,2.80
2019-02-21T13:24:36.665Z,3.53
2019-02-21T13:27:06.161Z,5.03
2019-02-21T13:29:35.773Z,3.60
2019-02-21T13:32:05.208Z,8.33
2019-02-21T13:34:34.770Z,4.70
2019-02-21T13:37:04.330Z,7.20
2019-02-21T13:39:33.982Z,6.40
2019-02-21T13:42:03.447Z,7.80
2019-02-21T13:44:33.322Z,7.10
2019-02-21T13:47:03.313Z,7.20
2019-02-21T13:49:32.759Z,5.20
2019-02-21T13:52:02.219Z,6.30
2019-02-21T13:54:31.649Z,9.67
2019-02-21T13:57:01.335Z,6.87
2019-02-21T13:59:31.070Z,2.30
2019-02-21T14:02:00.568Z,7.23
2019-02-21T14:04:32.807Z,3.23
2019-02-21T14:07:02.864Z,4.90
2019-02-21T14:09:32.369Z,6.63
2019-02-21T14:12:01.868Z,3.13
2019-02-21T14:14:31.336Z,5.60
2019-02-21T14:17:00.875Z,4.17
2019-02-21T14:19:30.361Z,5.30
2019-02-21T14:21:59.827Z,3.20
2019-02-21T14:24:36.719Z,7.53
2019-02-21T14:27:00.511Z,5.30
2019-02-21T14:29:38.726Z,4.43
2019-02-21T14:32:01.314Z,5.27
2019-02-21T14:34:30.918Z,3.10
2019-02-21T14:37:01.298Z,2.37
2019-02-21T14:39:31.511Z,3.63
2019-02-21T14:42:04.314Z,4.57
2019-02-21T14:44:33.472Z,1.93
2019-02-21T14:47:02.962Z,3.53
2019-02-21T14:49:32.484Z,5.83
2019-02-21T14:52:02.249Z,5.27
2019-02-21T14:54:31.748Z,4.73
2019-02-21T14:57:01.627Z,4.00
2019-02-21T14:59:31.158Z,6.07
2019-02-21T15:02:00.650Z,4.60
2019-02-21T15:04:30.270Z,1.43
2019-02-21T15:06:59.939Z,5.10
2019-02-21T15:09:29.388Z,7.70
2019-02-21T15:11:59.315Z,2.40
2019-02-21T15:14:31.377Z,3.10
2019-02-21T15:17:03.698Z,4.13
2019-02-21T15:19:52.251Z,4.67
2019-02-21T15:22:27.266Z,6.47
2019-02-21T15:24:56.805Z,5.10
2019-02-21T15:27:31.209Z,2.20
2019-02-21T15:30:01.245Z,4.87
2019-02-21T15:32:30.826Z,3.63
2019-02-21T15:35:00.372Z,3.43
2019-02-21T15:37:30.013Z,6.10
2019-02-21T15:39:59.507Z,2.50
2019-02-21T15:42:29.285Z,3.70
2019-02-21T15:44:59.045Z,4.10
2019-02-21T15:47:28.543Z,6.23
2019-02-21T15:49:58.623Z,2.13
2019-02-21T15:52:29.344Z,3.63
2019-02-21T15:54:59.177Z,4.67
2019-02-21T15:57:29.080Z,5.90
2019-02-21T15:59:58.498Z,5.17
2019-02-21T16:02:28.191Z,3.53
2019-02-21T16:04:57.660Z,5.20
2019-02-21T16:07:27.333Z,5.30
2019-02-21T16:09:56.847Z,6.70
2019-02-21T16:12:27.029Z,4.70
2019-02-21T16:14:56.710Z,4.40
2019-02-21T16:17:29.478Z,5.33
2019-02-21T16:19:58.989Z,4.70
2019-02-21T16:22:28.582Z,4.73
2019-02-21T16:24:58.214Z,5.47
2019-02-21T16:27:27.920Z,2.53
2019-02-21T16:29:58.339Z,1.20
2019-02-21T16:32:27.767Z,2.10
2019-02-21T16:34:57.881Z,2.40
2019-02-21T16:37:27.467Z,4.37
2019-02-21T16:39:57.104Z,3.50
2019-02-21T16:42:27.047Z,1.27
2019-02-21T16:44:56.471Z,1.10
2019-02-21T16:47:26.370Z,0.80
2019-02-21T16:49:58.246Z,0.80
2019-02-21T16:52:27.054Z,1.53
2019-02-21T16:54:57.504Z,0.70
2019-02-21T16:57:27.663Z,0.90
2019-02-21T16:59:57.172Z,1.20
2019-02-21T17:02:28.970Z,1.43
2019-02-21T17:04:59.160Z,0.70
2019-02-21T17:07:29.115Z,1.57
2019-02-21T17:09:59.814Z,5.30
2019-02-21T17:12:30.308Z,1.30
2019-02-21T17:14:59.887Z,1.03
2019-02-21T17:17:29.508Z,4.80
2019-02-21T17:19:59.136Z,3.90
2019-02-21T17:22:28.649Z,4.90
2019-02-21T17:24:58.322Z,0.80
2019-02-21T17:27:28.031Z,0.80
2019-02-21T17:30:06.535Z,1.83
2019-02-21T17:32:37.004Z,1.43
2019-02-21T17:35:10.030Z,0.80
2019-02-21T17:37:40.908Z,0.60
2019-02-21T17:40:29.772Z,0.97
2019-02-21T17:43:00.062Z,0.77
2019-02-21T17:45:32.412Z,1.63
2019-02-21T17:48:02.356Z,0.80
2019-02-21T17:50:31.900Z,0.80
2019-02-21T17:53:01.675Z,0.70
2019-02-21T17:55:31.862Z,0.80
2019-02-21T17:58:02.346Z,1.73
2019-02-21T18:00:36.603Z,1.30
2019-02-21T18:03:07.177Z,0.90
2019-02-21T18:05:36.894Z,1.40
2019-02-21T18:08:06.507Z,0.80
2019-02-21T18:10:36.233Z,0.60
2019-02-21T18:13:06.115Z,0.90
2019-02-21T18:15:41.601Z,0.70
2019-02-21T18:18:12.451Z,3.13
2019-02-21T18:20:42.115Z,2.33
2019-02-21T18:23:12.506Z,0.60
2019-02-21T18:25:48.533Z,4.70
2019-02-21T18:28:18.670Z,0.70
2019-02-21T18:30:48.336Z,1.47
2019-02-21T18:33:18.107Z,0.70
2019-02-21T18:35:47.744Z,1.30
2019-02-21T18:38:17.172Z,0.60
2019-02-21T18:40:47.127Z,0.90
2019-02-21T18:43:17.129Z,0.60
2019-02-21T18:45:47.514Z,0.70
2019-02-21T18:48:17.142Z,4.40
2019-02-21T18:50:47.105Z,0.80
2019-02-21T18:53:19.164Z,0.70
2019-02-21T18:55:49.903Z,2.27
2019-02-21T18:58:19.467Z,2.37
2019-02-21T19:00:48.942Z,0.73
2019-02-21T19:03:18.391Z,0.70
2019-02-21T19:05:48.167Z,11.30
2019-02-21T19:08:17.731Z,3.87
2019-02-21T19:10:47.293Z,0.60
2019-02-21T19:13:16.983Z,0.70
2019-02-21T19:15:47.423Z,2.50
2019-02-21T19:18:17.732Z,0.83
2019-02-21T19:20:48.515Z,0.80
2019-02-21T19:23:19.525Z,0.80
2019-02-21T19:25:49.669Z,1.10
2019-02-21T19:28:19.209Z,1.50
2019-02-21T19:30:58.341Z,1.00
2019-02-21T19:33:28.007Z,0.70
2019-02-21T19:36:02.072Z,1.83
2019-02-21T19:38:31.935Z,1.97
2019-02-21T19:41:01.531Z,0.90
2019-02-21T19:43:32.270Z,0.90
2019-02-21T19:46:07.966Z,0.70
2019-02-21T19:48:37.615Z,1.93
2019-02-21T19:51:07.206Z,1.10
2019-02-21T19:53:37.206Z,1.00
2019-02-21T19:56:08.327Z,1.03
2019-02-21T19:58:38.875Z,1.10
2019-02-21T20:01:08.795Z,4.03
2019-02-21T20:03:38.388Z,0.70
2019-02-21T20:06:08.261Z,2.70
2019-02-21T20:08:37.843Z,0.80
2019-02-21T20:11:08.298Z,1.83
2019-02-21T20:13:40.107Z,0.80
2019-02-21T20:16:10.762Z,1.10
2019-02-21T20:18:40.275Z,1.90
2019-02-21T20:21:12.643Z,1.90
2019-02-21T20:23:43.465Z,2.00
2019-02-21T20:26:18.289Z,0.70
2019-02-21T20:28:44.623Z,1.83
2019-02-21T20:31:14.104Z,0.80
2019-02-21T20:33:43.683Z,1.30
2019-02-21T20:36:13.411Z,1.17
2019-02-21T20:38:42.981Z,0.80
2019-02-21T20:41:14.510Z,1.93
2019-02-21T20:43:50.523Z,1.10
2019-02-21T20:46:20.068Z,1.13
2019-02-21T20:48:51.860Z,0.80
2019-02-21T20:51:21.475Z,4.37
2019-02-21T20:53:51.072Z,0.77
2019-02-21T20:56:20.784Z,4.27
2019-02-21T20:58:50.234Z,4.67
2019-02-21T21:01:21.199Z,4.67
2019-02-21T21:03:50.807Z,5.00
2019-02-21T21:06:20.706Z,4.93
2019-02-21T21:08:50.175Z,2.77
2019-02-21T21:11:25.843Z,4.90
2019-02-21T21:13:56.466Z,8.17
2019-02-21T21:16:32.184Z,7.30
2019-02-21T21:19:01.895Z,3.77
2019-02-21T21:21:31.504Z,4.50
2019-02-21T21:24:02.106Z,6.43
2019-02-21T21:26:31.558Z,6.57
2019-02-21T21:29:01.436Z,3.13
2019-02-21T21:31:31.107Z,7.33
2019-02-21T21:34:00.690Z,7.10
2019-02-21T21:36:30.351Z,5.87
2019-02-21T21:38:59.943Z,2.00
2019-02-21T21:41:29.699Z,7.53
2019-02-21T21:43:59.183Z,7.17
2019-02-21T21:46:29.226Z,7.67
2019-02-21T21:48:58.650Z,9.70
2019-02-21T21:51:28.358Z,11.30
2019-02-21T21:53:58.082Z,8.90
2019-02-21T21:56:28.783Z,9.77
2019-02-21T21:58:58.311Z,7.73
2019-02-21T22:01:27.946Z,9.17
2019-02-21T22:03:57.537Z,8.50
2019-02-21T22:06:27.155Z,6.50
2019-02-21T22:09:16.150Z,5.63
2019-02-21T22:11:47.850Z,3.60
2019-02-21T22:14:17.819Z,9.17
2019-02-21T22:16:47.848Z,4.40
2019-02-21T22:19:18.279Z,5.20
2019-02-21T22:21:48.180Z,4.40
2019-02-21T22:24:19.091Z,3.73
2019-02-21T22:26:48.574Z,6.27
2019-02-21T22:29:18.184Z,4.43
2019-02-21T22:31:49.077Z,1.77
2019-02-21T22:34:18.712Z,10.17
2019-02-21T22:36:48.591Z,3.43
2019-02-21T22:39:20.083Z,1.00
2019-02-21T22:41:49.604Z,0.70
2019-02-21T22:44:19.129Z,1.90
2019-02-21T22:46:48.906Z,4.20
2019-02-21T22:49:19.741Z,3.20
2019-02-21T22:51:49.293Z,6.27
2019-02-21T22:54:18.814Z,6.20
2019-02-21T22:56:48.507Z,7.00
2019-02-21T22:59:18.459Z,6.57
2019-02-21T23:01:48.469Z,8.53
2019-02-21T23:04:22.277Z,4.60
2019-02-21T23:07:09.618Z,5.90
2019-02-21T23:09:39.590Z,6.73
2019-02-21T23:12:10.355Z,3.33
2019-02-21T23:14:39.949Z,5.10
2019-02-21T23:17:09.782Z,1.87
2019-02-21T23:19:40.522Z,1.83
2019-02-21T23:22:10.199Z,3.13
2019-02-21T23:24:41.639Z,4.90
2019-02-21T23:27:11.059Z,2.53
2019-02-21T23:29:40.507Z,4.97
2019-02-21T23:32:10.379Z,6.20
2019-02-21T23:34:40.969Z,3.90
2019-02-21T23:37:10.731Z,0.90
2019-02-21T23:39:40.222Z,0.70
2019-02-21T23:42:09.824Z,0.70
2019-02-21T23:44:39.527Z,0.80
2019-02-21T23:47:08.956Z,0.87
2019-02-21T23:49:38.512Z,0.90
2019-02-21T23:52:08.147Z,2.07
2019-02-21T23:54:37.807Z,0.70
2019-02-21T23:57:07.346Z,1.53
2019-02-21T23:59:36.978Z,1.20
